createdAt,value
2022-12-29T00:04:45.151Z,12.02
2022-12-29T00:11:08.198Z,12.03
2022-12-29T00:17:28.226Z,12.04
2022-12-29T00:23:51.191Z,12.03
2022-12-29T00:30:11.185Z,12.03
2022-12-29T00:36:34.253Z,12.05
2022-12-29T00:42:54.195Z,12.08
2022-12-29T00:49:17.165Z,12.1
2022-12-29T00:55:37.220Z,12.1
2022-12-29T01:02:00.396Z,12.07
2022-12-29T01:08:20.188Z,12.03
2022-12-29T01:14:43.223Z,12.01
2022-12-29T01:21:03.196Z,12
2022-12-29T01:27:26.204Z,12
2022-12-29T01:33:46.185Z,12.02
2022-12-29T01:40:09.232Z,12.08
2022-12-29T01:46:29.167Z,12.18
2022-12-29T01:52:52.230Z,12.29
2022-12-29T01:59:12.171Z,12.39
2022-12-29T02:05:35.206Z,12.42
2022-12-29T02:11:55.191Z,12.42
2022-12-29T02:18:18.185Z,12.41
2022-12-29T02:24:38.177Z,12.46
2022-12-29T02:31:01.295Z,12.5
2022-12-29T02:37:21.148Z,12.46
2022-12-29T02:43:44.244Z,12.44
2022-12-29T02:50:04.222Z,12.42
2022-12-29T02:56:27.214Z,12.42
2022-12-29T03:02:47.361Z,12.41
2022-12-29T03:09:18.209Z,12.38
2022-12-29T03:15:30.195Z,12.36
2022-12-29T03:21:53.230Z,12.37
2022-12-29T03:28:13.180Z,12.36
2022-12-29T03:34:36.184Z,12.36
2022-12-29T03:40:56.144Z,12.41
2022-12-29T03:47:19.199Z,12.43
2022-12-29T03:53:39.179Z,12.43
2022-12-29T04:00:02.193Z,12.41
2022-12-29T04:06:22.177Z,12.38
2022-12-29T04:12:45.212Z,12.35
2022-12-29T04:19:05.168Z,12.35
2022-12-29T04:25:28.207Z,12.31
2022-12-29T04:49:10.146Z,12.11
2022-12-29T04:55:31.238Z,12.08
2022-12-29T05:01:54.226Z,12.1
2022-12-29T05:08:14.192Z,12.13
2022-12-29T05:14:37.151Z,12.21
2022-12-29T05:20:57.180Z,12.23
2022-12-29T05:27:20.197Z,12.2
2022-12-29T05:33:40.236Z,12.15
2022-12-29T05:40:03.183Z,12.06
2022-12-29T05:46:23.231Z,11.97
2022-12-29T05:52:46.205Z,11.96
2022-12-29T05:59:06.186Z,11.95
2022-12-29T06:05:29.193Z,11.93
2022-12-29T06:11:49.199Z,11.72
2022-12-29T06:18:16.563Z,11.53
2022-12-29T06:24:32.234Z,11.36
2022-12-29T06:30:55.176Z,11.18
2022-12-29T06:37:15.185Z,11.08
2022-12-29T06:43:38.205Z,11
2022-12-29T06:49:58.234Z,10.94
2022-12-29T06:56:21.216Z,10.89
2022-12-29T07:02:41.312Z,10.93
2022-12-29T07:09:04.211Z,10.96
2022-12-29T07:15:24.193Z,10.95
2022-12-29T07:21:53.867Z,10.96
2022-12-29T07:28:13.224Z,11.01
2022-12-29T07:34:36.174Z,11.06
2022-12-29T07:40:56.207Z,11.12
2022-12-29T07:47:19.205Z,11.11
2022-12-29T07:53:39.169Z,11.08
2022-12-29T08:00:02.246Z,11.06
2022-12-29T08:06:22.205Z,11.05
2022-12-29T08:12:45.197Z,11.08
2022-12-29T08:19:05.227Z,11.1
2022-12-29T08:25:28.225Z,11.15
2022-12-29T08:31:48.372Z,11.19
2022-12-29T08:38:11.200Z,11.21
2022-12-29T08:44:31.209Z,11.23
2022-12-29T08:50:54.198Z,11.24
2022-12-29T08:57:14.227Z,11.25
2022-12-29T09:04:12.594Z,11.24
2022-12-29T09:09:57.193Z,11.22
2022-12-29T09:16:20.325Z,11.2
2022-12-29T09:22:40.197Z,11.2
2022-12-29T09:29:03.232Z,11.23
2022-12-29T09:35:23.280Z,11.29
2022-12-29T09:41:46.172Z,11.39
2022-12-29T10:05:29.195Z,11.54
2022-12-29T10:11:49.156Z,11.61
2022-12-29T10:18:12.284Z,11.67
2022-12-29T10:24:32.182Z,11.73
2022-12-29T10:30:55.209Z,11.76
2022-12-29T10:37:15.238Z,11.8
2022-12-29T10:43:38.220Z,11.84
2022-12-29T10:49:58.338Z,11.86
2022-12-29T10:56:21.250Z,11.87
2022-12-29T11:02:41.531Z,11.96
2022-12-29T11:09:04.162Z,12.06
2022-12-29T11:15:24.165Z,12.14
2022-12-29T11:21:47.203Z,12.22
2022-12-29T11:28:07.178Z,12.29
2022-12-29T11:34:30.187Z,12.4
2022-12-29T11:40:50.235Z,12.54
2022-12-29T11:47:13.171Z,12.64
2022-12-29T11:53:33.243Z,12.69
2022-12-29T11:59:56.247Z,12.67
2022-12-29T12:06:16.210Z,12.6
2022-12-29T12:12:39.169Z,12.53
2022-12-29T12:18:59.192Z,12.46
2022-12-29T12:25:22.171Z,12.39
2022-12-29T12:31:42.170Z,12.35
2022-12-29T12:38:05.214Z,12.28
2022-12-29T12:44:25.221Z,12.24
2022-12-29T12:50:48.157Z,12.18
2022-12-29T12:57:08.201Z,12.13
2022-12-29T13:03:31.212Z,12.08
2022-12-29T13:09:51.214Z,12.03
2022-12-29T13:16:14.610Z,12
2022-12-29T13:22:34.151Z,12.01
2022-12-29T13:28:57.192Z,12.02
2022-12-29T13:35:17.204Z,11.98
2022-12-29T13:41:40.206Z,11.94
2022-12-29T13:48:00.179Z,11.87
2022-12-29T13:54:23.187Z,11.85
2022-12-29T14:00:43.191Z,11.84
2022-12-29T14:07:06.216Z,11.84
2022-12-29T14:13:26.205Z,11.85
2022-12-29T14:19:49.205Z,11.95
2022-12-29T14:26:09.184Z,12.06
2022-12-29T14:32:32.208Z,12.01
2022-12-29T14:38:52.184Z,11.91
2022-12-29T14:45:15.207Z,11.84
2022-12-29T14:51:35.213Z,11.75
2022-12-29T14:57:58.209Z,11.57
2022-12-29T15:04:18.189Z,11.35
2022-12-29T15:10:41.285Z,11.19
2022-12-29T15:27:25.136Z,10.83
2022-12-29T15:33:45.240Z,10.54
2022-12-29T15:40:08.160Z,10.32
2022-12-29T15:46:28.197Z,10.13
2022-12-29T15:52:51.264Z,9.96
2022-12-29T15:59:11.173Z,9.77
2022-12-29T16:05:34.298Z,9.61
2022-12-29T16:11:54.245Z,9.5
2022-12-29T16:18:17.182Z,9.44
2022-12-29T16:24:37.294Z,9.41
2022-12-29T16:31:00.308Z,9.34
2022-12-29T16:37:20.254Z,9.23
2022-12-29T16:43:43.245Z,9.12
2022-12-29T16:50:03.179Z,9.06
2022-12-29T16:56:26.240Z,8.97
2022-12-29T17:02:46.453Z,8.9
2022-12-29T17:09:09.201Z,8.9
2022-12-29T17:15:29.258Z,8.96
2022-12-29T17:21:52.428Z,8.99
2022-12-29T17:28:12.426Z,9.03
2022-12-29T17:34:35.171Z,9.04
2022-12-29T17:40:55.201Z,9.06
2022-12-29T17:47:18.146Z,9.08
2022-12-29T17:53:38.219Z,9.05
2022-12-29T18:00:01.295Z,9
2022-12-29T18:06:21.153Z,8.96
2022-12-29T18:12:44.180Z,8.91
2022-12-29T18:19:04.195Z,8.86
2022-12-29T18:25:27.161Z,8.78
2022-12-29T18:31:47.281Z,8.72
2022-12-29T18:38:10.241Z,8.68
2022-12-29T18:44:30.215Z,8.69
2022-12-29T18:50:53.169Z,8.77
2022-12-29T18:57:13.251Z,8.86
2022-12-29T19:03:36.619Z,8.92
2022-12-29T19:09:56.215Z,8.94
2022-12-29T19:16:19.341Z,8.98
2022-12-29T19:22:39.233Z,8.99
2022-12-29T19:29:02.178Z,8.98
2022-12-29T19:35:22.245Z,8.99
2022-12-29T19:41:45.253Z,9.02
2022-12-29T19:48:05.238Z,9.07
2022-12-29T19:54:28.222Z,9.09
2022-12-29T20:00:48.355Z,9.07
2022-12-29T20:07:15.699Z,9.02
2022-12-29T20:13:31.230Z,8.98
2022-12-29T20:19:54.292Z,8.96
2022-12-29T20:36:20.110Z,9.09
2022-12-29T20:42:40.150Z,9.06
2022-12-29T20:49:03.201Z,9.01
2022-12-29T20:55:23.186Z,8.94
2022-12-29T21:01:46.287Z,8.86
2022-12-29T21:08:06.176Z,8.73
2022-12-29T21:14:29.232Z,8.6
2022-12-29T21:20:49.221Z,8.49
2022-12-29T21:27:12.275Z,8.37
2022-12-29T21:33:32.290Z,8.26
2022-12-29T21:39:55.192Z,8.14
2022-12-29T21:46:15.258Z,8.03
2022-12-29T21:52:38.308Z,7.98
2022-12-29T21:58:58.222Z,7.98
2022-12-29T22:05:21.177Z,7.99
2022-12-29T22:11:41.233Z,7.99
2022-12-29T22:18:04.224Z,7.95
2022-12-29T22:24:24.236Z,7.88
2022-12-29T22:30:47.234Z,7.81
2022-12-29T22:37:07.143Z,7.73
2022-12-29T22:43:30.229Z,7.66
2022-12-29T22:49:50.230Z,7.6
2022-12-29T22:56:13.331Z,7.54
2022-12-29T23:20:27.211Z,7.24
2022-12-29T23:26:47.162Z,7.24
2022-12-29T23:33:10.263Z,7.28
2022-12-29T23:39:30.268Z,7.3
2022-12-29T23:45:53.223Z,7.28
2022-12-29T23:52:13.166Z,7.2
2022-12-29T23:58:36.215Z,7.15
